Time,TemperatureF,DewpointF,PressureIn,WindDirection,WindDirectionDegrees,WindSpeedMPH,WindSpeedGustMPH,Humidity,HourlyPrecipIn,Conditions,Clouds,dailyrainin,SoftwareType,DateUTC
2013-04-22 00:00:00,47.0,42.0,29.97,North,-999,-999.0,-999.0,80,-99.99,,,-99.99,,2013-04-21 23:00:00,
2013-04-22 00:42:00,47.0,42.0,29.97,North,-999,-999.0,-999.0,80,-99.99,,,-99.99,,2013-04-21 23:42:00,
2013-04-22 00:52:00,47.0,42.0,29.97,North,-999,-999.0,-999.0,80,-99.99,,,-99.99,,2013-04-21 23:52:00,
2013-04-22 01:00:00,47.0,43.0,29.96,North,-999,-999.0,-999.0,86,-99.99,,,-99.99,,2013-04-22 00:00:00,
2013-04-22 01:42:00,47.0,43.0,29.96,North,-999,-999.0,-999.0,86,-99.99,,,-99.99,,2013-04-22 00:42:00,
2013-04-22 01:51:00,47.0,43.0,29.96,North,-999,-999.0,-999.0,86,-99.99,,,-99.99,,2013-04-22 00:51:00,
2013-04-22 02:00:00,47.0,44.0,29.96,North,-999,-999.0,-999.0,90,-99.99,,,-99.99,,2013-04-22 01:00:00,
2013-04-22 02:41:00,47.0,44.0,29.96,North,-999,-999.0,-999.0,90,-99.99,,,-99.99,,2013-04-22 01:41:00,
2013-04-22 02:51:00,47.0,44.0,29.96,North,-999,-999.0,-999.0,90,-99.99,,,-99.99,,2013-04-22 01:51:00,
2013-04-22 03:00:00,46.0,44.0,29.95,North,-999,-999.0,-999.0,90,-99.99,,,-99.99,,2013-04-22 02:00:00,
2013-04-22 03:41:00,46.0,44.0,29.95,North,-999,-999.0,-999.0,90,-99.99,,,-99.99,,2013-04-22 02:41:00,
2013-04-22 03:51:00,46.0,44.0,29.95,North,-999,-999.0,-999.0,90,-99.99,,,-99.99,,2013-04-22 02:51:00,
2013-04-22 04:00:00,46.0,44.0,29.95,North,-999,-999.0,-999.0,92,-99.99,,,-99.99,,2013-04-22 03:00:00,
2013-04-22 04:42:00,46.0,44.0,29.95,North,-999,-999.0,-999.0,92,-99.99,,,-99.99,,2013-04-22 03:42:00,
2013-04-22 04:52:00,46.0,44.0,29.95,North,-999,-999.0,-999.0,92,-99.99,,,-99.99,,2013-04-22 03:52:00,
2013-04-22 05:00:00,46.0,43.0,29.94,North,-999,-999.0,-999.0,89,-99.99,,,-99.99,,2013-04-22 04:00:00,
2013-04-22 05:43:00,46.0,43.0,29.94,North,-999,-999.0,-999.0,89,-99.99,,,-99.99,,2013-04-22 04:43:00,
2013-04-22 05:52:00,46.0,43.0,29.94,North,-999,-999.0,-999.0,89,-99.99,,,-99.99,,2013-04-22 04:52:00,
2013-04-22 06:00:00,45.0,42.0,29.93,North,-999,-999.0,-999.0,87,-99.99,,,-99.99,,2013-04-22 05:00:00,
2013-04-22 06:42:00,45.0,42.0,29.93,North,-999,-999.0,-999.0,87,-99.99,,,-99.99,,2013-04-22 05:42:00,
2013-04-22 06:52:00,45.0,42.0,29.93,North,-999,-999.0,-999.0,87,-99.99,,,-99.99,,2013-04-22 05:52:00,
2013-04-22 07:00:00,45.0,42.0,29.92,North,-999,-999.0,-999.0,88,-99.99,,,-99.99,,2013-04-22 06:00:00,
2013-04-22 07:41:00,45.0,42.0,29.92,North,-999,-999.0,-999.0,88,-99.99,,,-99.99,,2013-04-22 06:41:00,
2013-04-22 07:51:00,45.0,42.0,29.92,North,-999,-999.0,-999.0,88,-99.99,,,-99.99,,2013-04-22 06:51:00,
2013-04-22 08:00:00,46.0,42.0,29.91,North,-999,-999.0,-999.0,86,-99.99,,,-99.99,,2013-04-22 07:00:00,
2013-04-22 08:31:00,46.0,42.0,29.91,North,-999,-999.0,-999.0,86,-99.99,,,-99.99,,2013-04-22 07:31:00,
2013-04-22 08:42:00,46.0,42.0,29.91,North,-999,-999.0,-999.0,86,-99.99,,,-99.99,,2013-04-22 07:42:00,
2013-04-22 08:52:00,46.0,42.0,29.91,North,-999,-999.0,-999.0,86,-99.99,,,-99.99,,2013-04-22 07:52:00,
2013-04-22 09:00:00,48.0,42.0,29.91,North,-999,-999.0,-999.0,79,-99.99,,,-99.99,,2013-04-22 08:00:00,
2013-04-22 09:41:00,48.0,42.0,29.91,North,-999,-999.0,-999.0,79,-99.99,,,-99.99,,2013-04-22 08:41:00,
2013-04-22 09:52:00,48.0,42.0,29.91,North,-999,-999.0,-999.0,79,-99.99,,,-99.99,,2013-04-22 08:52:00,
2013-04-22 10:00:00,49.0,42.0,29.90,North,-999,-999.0,-999.0,76,-99.99,,,-99.99,,2013-04-22 09:00:00,
2013-04-22 10:42:00,49.0,42.0,29.90,North,-999,-999.0,-999.0,76,-99.99,,,-99.99,,2013-04-22 09:42:00,
2013-04-22 10:52:00,49.0,42.0,29.90,North,-999,-999.0,-999.0,76,-99.99,,,-99.99,,2013-04-22 09:52:00,
2013-04-22 11:00:00,52.0,43.0,29.88,North,-999,-999.0,-999.0,73,-99.99,,,-99.99,,2013-04-22 10:00:00,
2013-04-22 11:42:00,52.0,43.0,29.88,North,-999,-999.0,-999.0,73,-99.99,,,-99.99,,2013-04-22 10:42:00,
2013-04-22 11:52:00,52.0,43.0,29.88,North,-999,-999.0,-999.0,73,-99.99,,,-99.99,,2013-04-22 10:52:00,
2013-04-22 12:00:00,51.0,44.0,29.86,North,-999,-999.0,-999.0,75,-99.99,,,-99.99,,2013-04-22 11:00:00,
2013-04-22 12:42:00,51.0,44.0,29.86,North,-999,-999.0,-999.0,75,-99.99,,,-99.99,,2013-04-22 11:42:00,
2013-04-22 12:52:00,51.0,44.0,29.86,North,-999,-999.0,-999.0,75,-99.99,,,-99.99,,2013-04-22 11:52:00,
2013-04-22 13:00:00,52.0,45.0,29.85,North,-999,-999.0,-999.0,77,-99.99,,,-99.99,,2013-04-22 12:00:00,
2013-04-22 13:42:00,52.0,45.0,29.85,North,-999,-999.0,-999.0,77,-99.99,,,-99.99,,2013-04-22 12:42:00,
2013-04-22 13:52:00,52.0,45.0,29.85,North,-999,-999.0,-999.0,77,-99.99,,,-99.99,,2013-04-22 12:52:00,
2013-04-22 14:00:00,54.0,47.0,29.84,North,-999,-999.0,-999.0,76,-99.99,,,-99.99,,2013-04-22 13:00:00,
2013-04-22 14:41:00,54.0,47.0,29.84,North,-999,-999.0,-999.0,76,-99.99,,,-99.99,,2013-04-22 13:41:00,
2013-04-22 14:52:00,54.0,47.0,29.84,North,-999,-999.0,-999.0,76,-99.99,,,-99.99,,2013-04-22 13:52:00,
2013-04-22 15:00:00,55.0,47.0,29.83,North,-999,-999.0,-999.0,75,-99.99,,,-99.99,,2013-04-22 14:00:00,
2013-04-22 15:42:00,55.0,47.0,29.83,North,-999,-999.0,-999.0,75,-99.99,,,-99.99,,2013-04-22 14:42:00,
2013-04-22 15:51:00,55.0,47.0,29.83,North,-999,-999.0,-999.0,75,-99.99,,,-99.99,,2013-04-22 14:51:00,
2013-04-22 16:00:00,55.0,48.0,29.81,North,-999,-999.0,-999.0,76,-99.99,,,-99.99,,2013-04-22 15:00:00,
2013-04-22 16:42:00,55.0,48.0,29.81,North,-999,-999.0,-999.0,76,-99.99,,,-99.99,,2013-04-22 15:42:00,
2013-04-22 16:53:00,55.0,48.0,29.81,North,-999,-999.0,-999.0,76,-99.99,,,-99.99,,2013-04-22 15:53:00,
2013-04-22 17:00:00,53.0,48.0,29.82,North,-999,-999.0,-999.0,82,-99.99,,,-99.99,,2013-04-22 16:00:00,
2013-04-22 17:41:00,53.0,48.0,29.82,North,-999,-999.0,-999.0,82,-99.99,,,-99.99,,2013-04-22 16:41:00,
2013-04-22 17:52:00,53.0,48.0,29.82,North,-999,-999.0,-999.0,82,-99.99,,,-99.99,,2013-04-22 16:52:00,
2013-04-22 18:00:00,54.0,50.0,29.81,North,-999,-999.0,-999.0,84,-99.99,,,-99.99,,2013-04-22 17:00:00,
2013-04-22 18:42:00,54.0,50.0,29.81,North,-999,-999.0,-999.0,84,-99.99,,,-99.99,,2013-04-22 17:42:00,
2013-04-22 18:51:00,54.0,50.0,29.81,North,-999,-999.0,-999.0,84,-99.99,,,-99.99,,2013-04-22 17:51:00,
2013-04-22 19:00:00,56.0,51.0,29.82,North,-999,-999.0,-999.0,83,-99.99,,,-99.99,,2013-04-22 18:00:00,
2013-04-22 19:42:00,56.0,51.0,29.82,North,-999,-999.0,-999.0,83,-99.99,,,-99.99,,2013-04-22 18:42:00,
2013-04-22 19:52:00,56.0,51.0,29.82,North,-999,-999.0,-999.0,83,-99.99,,,-99.99,,2013-04-22 18:52:00,
2013-04-22 20:00:00,54.0,51.0,29.84,North,-999,-999.0,-999.0,89,-99.99,,,-99.99,,2013-04-22 19:00:00,
2013-04-22 20:42:00,54.0,51.0,29.84,North,-999,-999.0,-999.0,89,-99.99,,,-99.99,,2013-04-22 19:42:00,
2013-04-22 20:52:00,54.0,51.0,29.84,North,-999,-999.0,-999.0,89,-99.99,,,-99.99,,2013-04-22 19:52:00,
2013-04-22 21:00:00,54.0,51.0,29.85,North,-999,-999.0,-999.0,89,-99.99,,,-99.99,,2013-04-22 20:00:00,
2013-04-22 21:41:00,54.0,51.0,29.85,North,-999,-999.0,-999.0,89,-99.99,,,-99.99,,2013-04-22 20:41:00,
2013-04-22 21:51:00,54.0,51.0,29.85,North,-999,-999.0,-999.0,89,-99.99,,,-99.99,,2013-04-22 20:51:00,
2013-04-22 22:00:00,52.0,49.0,29.87,North,-999,-999.0,-999.0,89,-99.99,,,-99.99,,2013-04-22 21:00:00,
2013-04-22 22:42:00,52.0,49.0,29.87,North,-999,-999.0,-999.0,89,-99.99,,,-99.99,,2013-04-22 21:42:00,
2013-04-22 22:52:00,52.0,49.0,29.87,North,-999,-999.0,-999.0,89,-99.99,,,-99.99,,2013-04-22 21:52:00,
2013-04-22 23:00:00,51.0,48.0,29.87,North,-999,-999.0,-999.0,92,-99.99,,,-99.99,,2013-04-22 22:00:00,
2013-04-22 23:41:00,51.0,48.0,29.87,North,-999,-999.0,-999.0,92,-99.99,,,-99.99,,2013-04-22 22:41:00,
2013-04-22 23:52:00,51.0,48.0,29.87,North,-999,-999.0,-999.0,92,-99.99,,,-99.99,,2013-04-22 22:52:00,